.
WxDataArchive / Data Records for 2007-07-09
2007-07-08 July 2007 2007-07-10

Data Records for Monday, 09 July 2007

Time	Temp	Chill	HIndex	Humid	Dewpt	 Wind 	HiWind	WindDir	Rain 	Barom 
-----	----	-----	------	-----	-----	------	------	-------	-----	----- 
00:00	80.3	80.3	82.8	65	67.4	1	3	270	0.00	29.755 
00:05	80.5	80.5	82.9	64	67.2	1	3	270	0.00	29.756 
00:10	80.3	80.3	82.7	64	67.0	1	3	248	0.00	29.760 
00:15	80.1	80.1	82.4	64	66.8	1	4	248	0.00	29.762 
00:20	80.1	80.1	82.4	64	66.8	1	4	248	0.00	29.762 
00:25	79.9	79.9	82.2	65	67.1	1	3	248	0.00	29.762 
00:30	79.8	79.8	82.1	65	67.0	1	3	270	0.00	29.760 
00:35	79.6	79.6	81.8	65	66.8	1	3	248	0.00	29.760 
00:40	79.4	79.4	81.6	65	66.6	0	2	248	0.00	29.758 
00:45	79.2	79.2	81.4	66	66.8	0	2	248	0.00	29.760 
00:50	79.2	79.2	81.4	66	66.8	1	3	248	0.00	29.759 
00:55	79.0	79.0	81.2	67	67.1	1	2	248	0.00	29.757 
01:00	78.8	78.8	80.9	67	66.9	1	2	248	0.00	29.759 
01:05	78.8	78.8	80.9	67	66.9	1	2	248	0.00	29.757 
01:10	78.6	78.6	80.7	67	66.7	1	2	248	0.00	29.757 
01:15	78.8	78.8	80.9	67	66.9	1	2	248	0.00	29.753 
01:20	78.6	78.6	80.7	68	67.1	1	2	248	0.00	29.753 
01:25	78.5	78.5	80.6	68	67.0	0	2	248	0.00	29.752 
01:30	78.3	78.3	80.4	69	67.3	0	1	248	0.00	29.752 
01:35	78.1	78.1	80.1	69	67.1	0	1	248	0.00	29.750 
01:40	77.9	77.9	79.9	70	67.3	0	2	248	0.00	29.751 
01:45	77.9	77.9	79.9	70	67.3	0	3	248	0.00	29.751 
01:50	77.7	77.7	79.7	71	67.5	0	3	248	0.00	29.750 
01:55	77.6	77.6	79.5	72	67.8	0	2	248	0.00	29.752 
02:00	77.4	77.4	79.3	72	67.6	1	3	248	0.00	29.751 
02:05	77.4	77.4	79.3	72	67.6	1	3	270	0.00	29.749 
02:10	77.2	77.2	79.0	73	67.9	1	4	248	0.00	29.752 
02:15	77.0	77.0	78.7	73	67.7	0	2	248	0.00	29.750 
02:20	77.0	77.0	78.7	73	67.7	0	2	248	0.00	29.750 
02:25	76.8	76.8	78.5	73	67.5	1	2	248	0.00	29.749 
02:30	76.8	76.8	78.5	73	67.5	1	3	248	0.00	29.750 
02:35	76.7	76.7	78.3	73	67.4	0	2	248	0.00	29.751 
02:40	76.5	76.5	78.1	74	67.6	0	1	248	0.00	29.749 
02:45	76.5	76.5	78.1	74	67.6	1	3	248	0.00	29.749 
02:50	76.3	76.3	77.8	74	67.4	0	2	248	0.00	29.748 
02:55	76.5	76.5	78.1	74	67.6	1	3	270	0.00	29.748 
03:00	76.5	76.5	78.1	73	67.2	0	3	270	0.00	29.749 
03:05	76.5	76.5	78.1	73	67.2	1	2	248	0.00	29.750 
03:10	76.3	76.3	77.8	74	67.4	0	2	248	0.00	29.750 
03:15	76.3	76.3	77.8	74	67.4	1	3	248	0.00	29.751 
03:20	76.3	76.3	77.8	74	67.4	1	3	248	0.00	29.750 
03:25	76.3	76.3	77.8	74	67.4	1	2	270	0.00	29.749 
03:30	76.1	76.1	77.5	75	67.6	1	4	248	0.00	29.749 
03:35	76.0	76.0	77.4	75	67.5	1	3	248	0.00	29.749 
03:40	75.8	75.8	77.0	76	67.7	0	1	270	0.00	29.749 
03:45	75.8	75.8	77.0	76	67.7	1	3	248	0.00	29.750 
03:50	75.8	75.8	77.0	76	67.7	1	3	248	0.00	29.751 
03:55	75.6	75.6	76.8	76	67.5	0	2	270	0.00	29.753 
04:00	75.4	75.4	76.5	76	67.3	1	3	270	0.00	29.752 
04:05	75.4	75.4	76.4	77	67.7	1	4	248	0.00	29.757 
04:10	75.3	75.3	76.3	77	67.6	1	3	270	0.00	29.757 
04:15	75.3	75.3	76.3	77	67.6	1	2	270	0.00	29.761 
04:20	75.3	75.3	76.3	77	67.6	1	4	248	0.00	29.765 
04:25	75.3	75.3	76.3	77	67.6	0	2	248	0.00	29.766 
04:30	75.1	75.1	76.0	78	67.8	1	3	248	0.00	29.766 
04:35	74.9	74.9	74.9	78	67.6	1	2	225	0.00	29.765 
04:40	74.7	74.7	74.7	78	67.4	0	3	248	0.00	29.764 
04:45	74.7	74.7	74.7	79	67.7	1	3	248	0.00	29.763 
04:50	74.7	74.7	74.7	79	67.7	1	3	248	0.00	29.764 
04:55	74.6	74.6	74.6	79	67.6	0	2	248	0.00	29.765 
05:00	74.4	74.4	74.4	80	67.8	0	2	248	0.00	29.766 
05:05	74.2	74.2	74.2	80	67.6	1	2	248	0.00	29.767 
05:10	74.2	74.2	74.2	80	67.6	1	3	248	0.00	29.766 
05:15	74.0	74.0	74.0	80	67.4	1	2	248	0.00	29.760 
05:20	74.2	74.2	74.2	80	67.6	1	2	248	0.00	29.766 
05:25	74.0	74.0	74.0	80	67.4	0	1	248	0.00	29.767 
05:30	74.0	74.0	74.0	80	67.4	0	1	248	0.00	29.767 
05:35	73.9	73.9	73.9	80	67.3	0	1	248	0.00	29.769 
05:40	73.9	73.9	73.9	80	67.3	0	2	248	0.00	29.770 
05:45	73.7	73.7	73.7	80	67.1	0	2	248	0.00	29.770 
05:50	73.9	73.9	73.9	80	67.3	1	2	248	0.00	29.771 
05:55	73.9	73.9	73.9	80	67.3	0	2	248	0.00	29.769 
06:00	73.9	73.9	73.9	80	67.3	0	1	248	0.00	29.770 
06:05	73.9	73.9	73.9	79	67.0	0	2	248	0.00	29.772 
06:10	73.9	73.9	73.9	79	67.0	0	1	248	0.00	29.776 
06:15	73.9	73.9	73.9	79	67.0	0	1	248	0.00	29.778 
06:20	74.2	74.2	74.2	78	66.9	0	2	248	0.00	29.781 
06:25	74.6	74.6	74.6	78	67.3	0	2	248	0.00	29.782 
06:30	74.9	74.9	74.9	77	67.2	0	2	248	0.00	29.782 
06:35	75.1	75.1	76.2	76	67.0	0	2	248	0.00	29.783 
06:40	75.4	75.4	76.6	75	66.9	1	3	248	0.00	29.784 
06:45	75.8	75.8	77.2	74	66.9	1	3	248	0.00	29.784 
06:50	76.1	76.1	77.6	73	66.8	1	5	248	0.00	29.786 
06:55	76.5	76.5	78.1	73	67.2	1	3	248	0.00	29.786 
07:00	76.8	76.8	78.5	72	67.1	1	4	248	0.00	29.787 
07:05	77.0	77.0	78.7	72	67.3	1	4	248	0.00	29.790 
07:10	77.2	77.2	79.0	71	67.0	1	4	248	0.00	29.795 
07:15	77.6	77.6	79.5	70	67.0	2	4	248	0.00	29.799 
07:20	77.9	77.9	79.9	69	66.9	1	3	248	0.00	29.799 
07:25	78.3	78.3	80.4	69	67.3	1	3	248	0.00	29.798 
07:30	78.6	78.6	80.7	68	67.1	1	3	248	0.00	29.798 
07:35	78.8	78.8	80.9	67	66.9	2	5	225	0.00	29.797 
07:40	79.0	79.0	81.2	67	67.1	2	5	248	0.00	29.797 
07:45	79.2	79.2	81.4	66	66.8	2	4	270	0.00	29.798 
07:50	79.6	79.6	81.9	66	67.2	2	3	270	0.00	29.798 
07:55	79.9	79.9	82.3	66	67.5	1	4	248	0.00	29.798 
08:00	80.3	80.3	82.7	64	67.0	2	4	248	0.00	29.800 
08:05	80.7	80.7	83.1	63	66.9	2	4	248	0.00	29.802 
08:10	81.1	81.1	83.6	63	67.3	2	4	248	0.00	29.802 
08:15	81.2	81.2	83.6	62	66.9	2	4	248	0.00	29.804 
08:20	81.4	81.4	84.1	63	67.6	2	6	248	0.00	29.809 
08:25	81.8	81.8	84.3	61	67.0	2	4	248	0.00	29.811 
08:30	82.0	82.0	84.6	61	67.2	2	4	315	0.00	29.810 
08:35	82.2	82.2	84.7	60	66.9	2	4	270	0.00	29.812 
08:40	82.8	82.8	85.8	61	67.9	1	3	248	0.00	29.812 
08:45	83.2	83.2	86.0	59	67.4	2	4	248	0.00	29.812 
08:50	83.6	83.6	86.4	58	67.2	2	6	248	0.00	29.813 
08:55	83.8	83.8	86.7	58	67.4	2	5	270	0.00	29.813 
09:00	84.1	84.1	87.2	58	67.7	2	4	270	0.00	29.814 
09:05	84.7	84.7	87.6	56	67.2	2	5	248	0.00	29.815 
09:10	85.1	85.1	88.2	56	67.6	2	5	248	0.00	29.816 
09:15	85.1	85.1	87.7	54	66.6	2	5	248	0.00	29.818 
09:20	85.5	85.5	88.0	53	66.4	2	4	248	0.00	29.816 
09:25	85.7	85.7	88.3	53	66.6	3	5	270	0.00	29.816 
09:30	85.9	85.9	88.3	52	66.2	3	6	248	0.00	29.817 
09:35	86.5	86.5	89.3	52	66.7	2	5	270	0.00	29.816 
09:40	87.0	87.0	89.7	51	66.6	2	5	248	0.00	29.815 
09:45	86.7	86.7	88.9	50	65.8	2	4	270	0.00	29.816 
09:50	86.7	86.7	88.9	50	65.8	2	5	270	0.00	29.818 
09:55	87.4	87.4	89.1	47	64.7	3	5	270	0.00	29.819 
10:00	87.6	87.6	88.8	45	63.6	3	6	270	0.00	29.820 
10:05	87.6	87.6	88.8	45	63.6	2	5	248	0.00	29.822 
10:10	87.2	87.2	88.2	45	63.2	3	6	270	0.00	29.823 
10:15	87.2	87.2	88.8	47	64.5	2	5	248	0.00	29.822 
10:20	88.2	88.2	89.3	44	63.5	3	6	270	0.00	29.822 
10:25	88.4	88.4	89.3	43	63.0	3	7	270	0.00	29.819 
10:30	89.0	89.0	89.0	39	60.8	3	7	270	0.00	29.819 
10:35	89.0	89.0	89.0	39	60.8	3	6	270	0.00	29.816 
10:40	89.3	89.3	89.4	39	61.0	3	6	270	0.00	29.818 
10:45	89.7	89.7	90.2	40	62.1	3	6	248	0.00	29.818 
10:50	89.0	89.0	89.0	39	60.8	4	7	270	0.00	29.818 
10:55	88.4	88.4	89.0	42	62.3	2	7	270	0.00	29.818 
11:00	89.0	89.0	89.3	40	61.5	2	6	270	0.00	29.817 
11:05	89.3	89.3	90.3	42	63.2	3	9	248	0.00	29.817 
11:10	90.1	90.1	91.9	43	64.5	2	4	270	0.00	29.814 
11:15	89.7	89.7	90.2	40	62.1	3	5	270	0.00	29.814 
11:20	89.0	89.0	89.9	42	62.9	3	6	270	0.00	29.814 
11:25	88.4	88.4	89.0	42	62.3	2	6	248	0.00	29.813 
11:30	88.8	88.8	89.9	43	63.4	2	5	248	0.00	29.810 
11:35	88.8	88.8	89.6	42	62.7	2	5	248	0.00	29.812 
11:40	88.0	88.0	88.7	43	62.7	2	4	270	0.00	29.809 
11:45	88.6	88.6	89.3	42	62.5	2	6	270	0.00	29.810 
11:50	89.5	89.5	90.0	40	61.9	3	6	270	0.00	29.805 
11:55	90.5	90.5	91.1	39	62.1	2	6	270	0.00	29.801 
12:00	90.7	90.7	91.7	40	63.0	3	5	270	0.00	29.803 
12:05	90.7	90.7	91.4	39	62.3	4	9	270	0.00	29.807 
12:10	91.0	91.0	91.8	39	62.6	3	6	248	0.00	29.807 
12:15	90.7	90.7	89.8	34	58.4	3	7	270	0.00	29.806 
12:20	90.3	90.3	89.6	35	58.9	3	7	270	0.00	29.807 
12:25	90.7	90.7	90.1	35	59.2	3	9	270	0.00	29.803 
12:30	91.0	91.0	90.2	34	58.7	4	10	270	0.00	29.801 
12:35	91.2	91.2	90.2	33	58.0	4	9	270	0.00	29.798 
12:40	91.6	91.6	90.1	31	56.6	3	6	270	0.00	29.797 
12:45	91.8	91.8	90.7	32	57.7	2	6	248	0.00	29.796 
12:50	92.1	92.1	91.4	33	58.8	2	5	270	0.00	29.796 
12:55	92.5	92.5	91.9	33	59.2	2	5	248	0.00	29.794 
13:00	92.5	92.5	92.6	35	60.8	3	5	270	0.00	29.795 
13:05	92.3	92.3	91.3	32	58.1	2	5	270	0.00	29.794 
13:10	91.8	91.8	91.6	35	60.2	3	5	248	0.00	29.795 
13:15	91.6	91.6	91.7	36	60.8	2	5	248	0.00	29.794 
13:20	92.1	92.1	92.8	37	62.0	2	7	292	0.00	29.794 
13:25	91.8	91.8	91.3	34	59.4	2	5	315	0.00	29.790 
13:30	91.4	91.4	90.7	34	59.0	3	9	270	0.00	29.795 
13:35	92.1	92.1	92.0	35	60.5	2	5	248	0.00	29.796 
13:40	92.3	92.3	91.6	33	59.0	2	4	248	0.00	29.794 
13:45	92.3	92.3	91.6	33	59.0	2	7	270	0.00	29.790 
13:50	92.5	92.5	91.3	31	57.4	3	7	270	0.00	29.789 
13:55	90.3	90.3	90.5	38	61.2	2	10	270	0.00	29.784 
14:00	84.9	84.9	88.2	57	67.9	2	6	248	0.00	29.788 
14:05	80.7	80.7	83.1	63	66.9	2	4	248	0.00	29.787 
14:10	78.3	78.3	80.2	64	65.1	1	4	270	0.00	29.786 
14:15	77.9	77.9	79.7	64	64.7	1	5	90	0.00	29.787 
14:20	77.6	77.6	79.4	62	63.5	3	5	248	0.00	29.784 
14:25	77.0	77.0	78.8	68	65.6	1	4	248	0.00	29.780 
14:30	77.2	77.2	79.0	69	66.2	2	6	270	0.00	29.777 
14:35	78.8	78.8	80.6	62	64.7	2	5	270	0.00	29.776 
14:40	78.8	78.8	80.8	65	66.0	1	4	270	0.00	29.776 
14:45	78.1	78.1	79.9	64	64.9	3	8	248	0.00	29.778 
14:50	76.8	76.8	78.6	66	64.6	3	6	270	0.00	29.779 
14:55	76.3	76.3	77.9	72	66.6	1	3	292	0.00	29.775 
15:00	76.3	76.3	78.0	69	65.4	3	5	270	0.00	29.775 
15:05	76.7	76.7	78.4	69	65.7	1	4	270	0.00	29.774 
15:10	77.6	77.6	79.5	67	65.8	1	6	270	0.00	29.774 
15:15	80.5	80.5	82.2	58	64.3	3	9	248	0.00	29.767 
15:20	81.2	81.2	82.6	55	63.5	2	4	225	0.00	29.762 
15:25	81.6	81.6	83.5	58	65.4	1	3	270	0.00	29.760 
15:30	83.8	83.8	84.9	50	63.1	2	4	248	0.00	29.761 
15:35	84.5	84.5	85.6	49	63.2	2	6	248	0.00	29.756 
15:40	84.9	84.9	85.8	48	63.0	2	5	248	0.00	29.760 
15:45	85.7	85.7	86.9	48	63.7	1	6	248	0.00	29.758 
15:50	88.0	88.0	88.2	41	61.3	3	6	90	0.00	29.757 
15:55	90.3	90.3	90.5	38	61.2	3	5	270	0.00	29.758 
16:00	90.7	90.7	91.4	39	62.3	1	4	248	0.00	29.755 
16:05	91.2	91.2	92.5	40	63.5	1	4	270	0.00	29.758 
16:10	91.6	91.6	91.7	36	60.8	3	6	270	0.00	29.756 
16:15	91.8	91.8	92.3	37	61.8	2	4	270	0.00	29.764 
16:20	92.3	92.3	92.3	35	60.6	3	7	270	0.00	29.762 
16:25	92.1	92.1	92.8	37	62.0	2	6	248	0.00	29.759 
16:30	92.3	92.3	92.7	36	61.4	2	6	248	0.00	29.755 
16:35	92.1	92.1	92.4	36	61.3	2	5	270	0.00	29.754 
16:40	92.3	92.3	92.3	35	60.6	2	4	270	0.00	29.754 
16:45	92.3	92.3	92.7	36	61.4	2	7	248	0.00	29.754 
16:50	92.5	92.5	92.6	35	60.8	1	4	248	0.00	29.751 
16:55	92.3	92.3	92.0	34	59.8	2	5	270	0.00	29.751 
17:00	91.8	91.8	91.9	36	61.0	3	6	270	0.00	29.752 
17:05	91.8	91.8	91.6	35	60.2	2	5	248	0.00	29.750 
17:10	91.4	91.4	91.4	36	60.6	1	4	270	0.00	29.748 
17:15	91.2	91.2	91.8	38	62.0	1	5	270	0.00	29.754 
17:20	91.0	91.0	91.8	39	62.6	2	6	248	0.00	29.757 
17:25	90.5	90.5	91.1	39	62.1	2	7	270	0.00	29.761 
17:30	90.1	90.1	90.5	39	61.8	2	4	248	0.00	29.761 
17:35	89.7	89.7	90.2	40	62.1	1	5	248	0.00	29.769 
17:40	89.3	89.3	90.0	41	62.5	1	4	248	0.00	29.771 
17:45	89.3	89.3	89.7	40	61.8	2	6	248	0.00	29.772 
17:50	89.0	89.0	89.6	41	62.2	2	5	248	0.00	29.776 
17:55	88.6	88.6	89.3	42	62.5	1	4	248	0.00	29.779 
18:00	88.4	88.4	89.0	42	62.3	2	5	270	0.00	29.784 
18:05	88.2	88.2	89.0	43	62.8	1	3	270	0.00	29.785 
18:10	88.0	88.0	88.7	43	62.7	1	3	248	0.00	29.786 
18:15	87.8	87.8	88.8	44	63.1	1	2	248	0.00	29.783 
18:20	88.0	88.0	88.7	43	62.7	1	3	248	0.00	29.784 
18:25	88.0	88.0	88.7	43	62.7	1	3	270	0.00	29.780 
18:30	87.8	87.8	88.8	44	63.1	1	3	248	0.00	29.773 
18:35	87.6	87.6	88.8	45	63.6	1	4	248	0.00	29.772 
18:40	87.6	87.6	88.5	44	63.0	2	5	248	0.00	29.779 
18:45	87.6	87.6	88.8	45	63.6	2	5	248	0.00	29.771 
18:50	87.6	87.6	88.8	45	63.6	1	3	248	0.00	29.779 
18:55	87.4	87.4	88.8	46	64.0	1	4	270	0.00	29.779 
19:00	87.2	87.2	88.5	46	63.9	1	5	270	0.00	29.779 
19:05	87.0	87.0	88.2	46	63.7	1	4	270	0.00	29.780 
19:10	87.0	87.0	88.2	46	63.7	1	4	248	0.00	29.782 
19:15	86.7	86.7	88.1	47	64.0	1	3	248	0.00	29.780 
19:20	86.5	86.5	87.8	47	63.8	1	3	248	0.00	29.780 
19:25	86.3	86.3	87.8	48	64.3	1	3	270	0.00	29.779 
19:30	86.3	86.3	87.5	47	63.7	1	3	270	0.00	29.783 
19:35	86.1	86.1	87.5	48	64.1	1	4	248	0.00	29.778 
19:40	85.9	85.9	87.2	48	63.9	1	2	248	0.00	29.780 
19:45	85.7	85.7	87.2	49	64.3	2	5	248	0.00	29.783 
19:50	85.5	85.5	87.2	50	64.7	2	5	270	0.00	29.785 
19:55	84.5	84.5	86.3	52	64.9	2	4	248	0.00	29.787 
20:00	83.4	83.4	85.2	54	65.0	1	2	270	0.00	29.785 
20:05	82.4	82.4	84.2	56	65.1	2	4	270	0.00	29.793 
20:10	81.6	81.6	83.7	59	65.9	2	3	292	0.00	29.795 
20:15	80.9	80.9	83.1	61	66.2	1	3	270	0.00	29.788 
20:20	80.3	80.3	82.4	62	66.1	1	4	225	0.00	29.788 
20:25	79.8	79.8	81.7	61	65.1	1	4	270	0.00	29.792 
20:30	79.6	79.6	81.3	60	64.5	1	3	270	0.00	29.799 
20:35	79.2	79.2	80.8	59	63.6	1	4	248	0.00	29.802 
20:40	78.8	78.8	80.3	58	62.8	1	3	248	0.00	29.803 
20:45	78.6	78.6	80.1	57	62.1	1	4	248	0.00	29.803 
20:50	78.3	78.3	79.8	57	61.8	1	3	248	0.00	29.803 
20:55	78.3	78.3	79.9	58	62.3	0	2	248	0.00	29.802 
21:00	77.9	77.9	79.5	57	61.4	0	1	248	0.00	29.802 
21:05	77.9	77.9	79.5	57	61.4	0	2	248	0.00	29.800 
21:10	77.7	77.7	79.3	58	61.7	0	1	248	0.00	29.793 
21:15	77.7	77.7	79.3	58	61.7	0	1	248	0.00	29.789 
21:20	77.4	77.4	79.1	58	61.4	0	1	248	0.00	29.795 
21:25	77.2	77.2	78.9	58	61.3	0	1	248	0.00	29.798 
21:30	77.0	77.0	78.8	59	61.6	0	0	---	0.00	29.800 
21:35	76.8	76.8	78.6	59	61.4	0	1	248	0.00	29.801 
21:40	76.8	76.8	78.6	59	61.4	0	1	248	0.00	29.799 
21:45	76.7	76.7	78.5	59	61.3	0	0	---	0.00	29.793 
21:50	76.5	76.5	78.4	60	61.6	0	0	---	0.00	29.795 
21:55	76.3	76.3	78.2	60	61.4	0	0	---	0.00	29.791 
22:00	76.1	76.1	78.1	60	61.2	0	1	248	0.00	29.793 
22:05	76.1	76.1	78.1	61	61.7	0	0	---	0.00	29.798 
22:10	76.1	76.1	78.0	62	62.1	0	1	248	0.00	29.801 
22:15	76.0	76.0	78.0	62	62.0	0	1	248	0.00	29.801 
22:20	76.0	76.0	78.0	62	62.0	0	1	248	0.00	29.799 
22:25	75.8	75.8	77.8	63	62.3	0	2	248	0.00	29.799 
22:30	75.8	75.8	77.7	64	62.7	0	1	248	0.00	29.801 
22:35	75.6	75.6	77.5	65	63.0	0	0	---	0.00	29.802 
22:40	75.4	75.4	77.4	65	62.8	0	1	248	0.00	29.804 
22:45	75.4	75.4	77.3	66	63.2	0	0	---	0.00	29.802 
22:50	75.3	75.3	77.2	66	63.1	0	0	---	0.00	29.802 
22:55	75.1	75.1	77.0	67	63.4	0	0	---	0.00	29.803 
23:00	75.1	75.1	76.9	68	63.8	0	0	---	0.00	29.804 
23:05	75.1	75.1	76.9	68	63.8	0	0	---	0.00	29.808 
23:10	74.9	74.9	74.9	68	63.6	0	0	---	0.00	29.811 
23:15	74.7	74.7	74.7	69	63.8	0	0	---	0.00	29.813 
23:20	74.7	74.7	74.7	69	63.8	0	0	---	0.00	29.813 
23:25	74.7	74.7	74.7	70	64.2	0	0	---	0.00	29.810 
23:30	74.7	74.7	74.7	70	64.2	0	0	---	0.00	29.805 
23:35	74.6	74.6	74.6	70	64.2	0	0	---	0.00	29.807 
23:40	74.6	74.6	74.6	71	64.6	0	0	---	0.00	29.803 
23:45	74.4	74.4	74.4	72	64.8	0	0	---	0.00	29.805 
23:50	74.6	74.6	74.6	73	65.4	0	0	---	0.00	29.804 
23:55	74.6	74.6	74.6	72	65.0	0	0	---	0.00	29.801 

CoCoRaHS
IN-AL-39
A2 Web Hosting
Creative Commons License
GoDaddy
Look for:

loaded 2017-10-18 22:12:48 • last modified 2010-11-18 10:43:29
Privacy PolicyDisclaimer
• wx.awcolley.com is powered by PmWiki v.2002016 •
• all content (unless otherwise noted) © 2017 A W Colley